x

Albatross Bank - 104nm South Of Kodiak, Ak (46078) Wave Buoy

6:50pm - Wed 29th Jul 2015 All times are AKDT. -8 hours from GMT.

  • Sig Wave height 3.3ft
  • Swell Direction
  • Peak Period 16s
  • Average Period 8s
  • Wind
    2mph
  • Sea Temp 55°f
  • Air Temp 53°f
  • Sea Pressure 1014.8mb
  • Albatross Bank - 104nm South Of Kodiak, Ak
  • Albatross Bank - 104nm South Of Kodiak, Ak

More Historic Weather Station data

Upgrade to MSW Pro to gain access to the past 30 days of data for over 8000 Wavebouys and Weather Stations around the globe.

Join Pro

Comparision Forecast

View Surf forecast
   
Wed 07/29 6:50pm 3.5ft 16s 8s 2
mph
1014.8mb 55f 53f
5:50pm 3ft 17s 8s  -  2 mph 1014.8mb 55f 54f
4:50pm 3.5ft 16s 8s 4
mph
1015mb 55f 53f
3:50pm 3.5ft 17s 8s 4 7 mph 1015.1mb 54f 53f
2:50pm 3.5ft 16s 8s 4 7 mph 1014.9mb 54f 53f
1:50pm 3.5ft 17s 8s 7 9 mph 1014.7mb 54f 53f
12:50pm 3.5ft 17s 8s 9
mph
1014.5mb 54f 52f
11:50am  -   -   -  7
mph
1014.4mb 54f 52f
10:50am 4.5ft 16s 8s 7 9 mph 1014.2mb 54f 52f
9:50am 4ft 16s 7s 7 9 mph 1013.9mb 54f 53f
7:50am 4ft 17s 7s 9
mph
1013.6mb 54f 53f
6:50am 4.5ft 17s 7s 9
mph
1013.4mb 54f 54f
5:50am 3.5ft 17s 7s 7 9 mph 1013.3mb 54f 54f
4:50am 3.5ft 17s 7s 4
mph
1013.2mb 54f 54f
3:50am 3.5ft 17s 6s 7 9 mph 1013.3mb 54f 54f
2:50am 3.5ft 17s 7s 7 9 mph 1013.2mb 54f 54f
1:50am 3.5ft 17s 7s 7 9 mph 1013.2mb 54f 53f
12:50am 4ft 16s 6s 11 13 mph 1013mb 54f 53f
Tue 07/28 11:50pm 3.5ft 17s 6s 9 13 mph 1013mb 54f 54f
10:50pm 4ft 7s 6s 11 13 mph 1012.8mb 54f 54f
9:50pm 4.5ft 17s 6s 11 13 mph 1012.5mb 54f 54f
8:50pm 4.5ft 7s 6s 9 11 mph 1012.5mb 54f 54f
7:50pm 4.5ft 7s 6s 11 13 mph 1012.5mb 54f 54f
6:50pm 4.5ft 17s 6s 13 16 mph 1012.4mb 54f 54f
5:50pm 4.5ft 16s 6s 13 16 mph 1012.3mb 54f 54f
4:50pm 4ft 17s 6s 13 16 mph 1012.3mb 54f 54f
3:50pm 4ft 7s 6s 13 16 mph 1012.2mb 54f 54f
2:50pm 4ft 17s 6s 13 16 mph 1012mb 54f 53f
1:50pm 4ft 17s 6s 13 16 mph 1011.8mb 54f 53f
12:50pm 4ft 17s 6s 13 16 mph 1011.5mb 54f 53f
11:50am 4.5ft 8s 6s 13 16 mph 1011.3mb 54f 53f
10:50am 4.5ft 8s 6s 13 16 mph 1011.3mb 54f 53f
9:50am 5ft 8s 6s 13 16 mph 1011.2mb 54f 53f
8:50am 5ft 8s 6s 16 18 mph 1011mb 54f 53f
7:50am 5ft 8s 6s 13 18 mph 1010.8mb 54f 53f
6:50am 5ft 8s 6s 13 16 mph 1010.5mb 53f 53f
5:50am 5ft 7s 6s 13 16 mph 1010.4mb 53f 53f
4:50am 5ft 8s 6s 13 16 mph 1010.4mb 54f 53f
3:50am 5.5ft 8s 6s 13 18 mph 1010.6mb 54f 53f
2:50am 5ft 7s 5s 13 18 mph 1010.5mb 54f 53f
1:50am 5ft 8s 6s 16 20 mph 1010.3mb 54f 54f
12:50am 5ft 8s 6s 18 20 mph 1010.1mb 54f 53f
Mon 07/27 11:50pm 5.5ft 8s 6s 18 22 mph 1010mb 54f 53f
10:50pm 5.5ft 6s 6s 18 22 mph 1009.7mb 54f 54f
9:50pm 5ft 7s 6s 18 22 mph 1009.4mb 54f 54f
8:50pm 5.5ft 7s 6s 18 22 mph 1009.3mb 54f 54f
7:50pm 5ft 8s 6s 18 22 mph 1009.3mb 54f 54f
6:50pm 6ft 7s 6s 20 22 mph 1009.2mb 54f 53f
5:50pm 6ft 8s 6s 20 25 mph 1009.3mb 54f 53f
4:50pm 6ft 7s 5s 20 22 mph 1009.3mb 54f 53f
3:50pm 6ft 7s 6s 20 25 mph 1009.3mb 54f 53f
2:50pm 6ft 6s 5s 20 22 mph 1009.1mb 54f 53f
1:50pm 6ft 7s 5s 22 25 mph 1008.8mb 54f 53f
12:50pm 5ft 8s 5s 20 22 mph 1008.7mb 54f 53f
11:50am 6ft 7s 6s 20 25 mph 1008.5mb 53f 53f
10:50am 6ft 8s 6s 20 25 mph 1008.6mb 53f 53f
9:50am 6ft 7s 6s 20 27 mph 1008.2mb 53f 53f
8:50am 6ft 8s 6s 20 25 mph 1008mb 53f 53f
7:50am 6ft 8s 6s 22 27 mph 1007.9mb 53f 53f
6:50am 5.5ft 7s 6s 22 25 mph 1007.6mb 53f 53f
5:50am 5ft 7s 5s 20 25 mph 1007.5mb 53f 53f
4:50am 5.5ft 7s 6s 20 25 mph 1007.4mb 53f 53f
3:50am 5ft 8s 6s 18 20 mph 1007.3mb 53f 53f
2:50am 5ft 8s 6s 16 20 mph 1007.4mb 53f 53f
1:50am 5ft 8s 6s 18 22 mph 1007.3mb 53f 53f
12:50am 5.5ft 8s 6s 18 22 mph 1007.5mb 53f 53f
Sun 07/26 11:50pm 5ft 8s 6s 16 18 mph 1007.6mb 53f 53f
10:50pm 5.5ft 8s 6s 13 16 mph 1007.8mb 53f 53f
9:50pm 6ft 8s 6s 16 18 mph 1007.8mb 53f 53f
8:50pm 6ft 9s 6s 16 18 mph 1007.9mb 53f 53f
7:50pm 6ft 8s 6s 18 20 mph 1008.3mb 53f 53f
6:50pm 6ft 9s 6s 18 20 mph 1008.6mb 53f 53f
5:50pm 6ft 9s 6s 18 20 mph 1008.9mb 53f 53f
4:50pm 6ft 10s 6s 18 22 mph 1009.1mb 53f 53f
3:50pm 7ft 9s 6s 18 20 mph 1009.5mb 54f 53f
2:50pm 6.5ft 9s 6s 18 20 mph 1009.5mb 54f 53f
1:50pm 6.5ft 8s 6s 18 22 mph 1009.6mb 53f 53f
12:50pm 6.5ft 9s 6s 18 22 mph 1009.5mb 53f 53f
11:50am 7ft 10s 7s 18 20 mph 1009.5mb 53f 53f
10:50am 7.5ft 9s 7s 18 20 mph 1009.6mb 53f 53f
9:50am 8ft 9s 7s 16 20 mph 1009.6mb 53f 53f
8:50am 7.5ft 9s 7s 16 20 mph 1009.8mb 53f 53f
7:50am 8.5ft 10s 7s 16 20 mph 1009.9mb 53f 53f
6:50am 8ft 10s 7s 16 18 mph 1009.9mb 53f 52f
5:50am 8ft 8s 7s 18 22 mph 1010.2mb 53f 53f
4:50am 8.5ft 9s 7s 16 20 mph 1010.3mb 53f 53f